sensor_id;sensor_type;location;lat;lon;timestamp;P1;durP1;ratioP1;P2;durP2;ratioP2
68275;SDS011;55106;51.438;-0.098;2022-07-18T00:01:42;10.55;;;4.75;;
68275;SDS011;55106;51.438;-0.098;2022-07-18T00:04:07;8.80;;;4.97;;
68275;SDS011;55106;51.438;-0.098;2022-07-18T00:06:33;9.00;;;4.47;;
68275;SDS011;55106;51.438;-0.098;2022-07-18T00:08:58;10.50;;;4.68;;
68275;SDS011;55106;51.438;-0.098;2022-07-18T00:11:24;9.60;;;4.87;;
68275;SDS011;55106;51.438;-0.098;2022-07-18T00:13:49;8.33;;;4.30;;
68275;SDS011;55106;51.438;-0.098;2022-07-18T00:16:18;9.90;;;4.50;;
68275;SDS011;55106;51.438;-0.098;2022-07-18T00:18:44;9.65;;;5.18;;
68275;SDS011;55106;51.438;-0.098;2022-07-18T00:21:10;8.82;;;4.55;;
68275;SDS011;55106;51.438;-0.098;2022-07-18T00:23:35;8.93;;;4.43;;
68275;SDS011;55106;51.438;-0.098;2022-07-18T00:26:01;11.40;;;4.77;;
68275;SDS011;55106;51.438;-0.098;2022-07-18T00:28:27;9.60;;;4.63;;
68275;SDS011;55106;51.438;-0.098;2022-07-18T00:30:52;9.17;;;4.27;;
68275;SDS011;55106;51.438;-0.098;2022-07-18T00:33:18;8.82;;;4.45;;
68275;SDS011;55106;51.438;-0.098;2022-07-18T00:35:43;9.90;;;4.60;;
68275;SDS011;55106;51.438;-0.098;2022-07-18T00:38:08;9.80;;;4.10;;
68275;SDS011;55106;51.438;-0.098;2022-07-18T00:40:34;9.83;;;4.93;;
68275;SDS011;55106;51.438;-0.098;2022-07-18T00:42:59;9.48;;;4.68;;
68275;SDS011;55106;51.438;-0.098;2022-07-18T00:45:25;11.07;;;4.93;;
68275;SDS011;55106;51.438;-0.098;2022-07-18T00:47:50;12.90;;;4.70;;
68275;SDS011;55106;51.438;-0.098;2022-07-18T00:50:17;10.07;;;4.85;;
68275;SDS011;55106;51.438;-0.098;2022-07-18T00:52:43;9.65;;;4.47;;
68275;SDS011;55106;51.438;-0.098;2022-07-18T00:55:09;9.17;;;4.17;;
68275;SDS011;55106;51.438;-0.098;2022-07-18T00:57:35;8.83;;;4.13;;
68275;SDS011;55106;51.438;-0.098;2022-07-18T01:00:04;10.38;;;4.38;;
68275;SDS011;55106;51.438;-0.098;2022-07-18T01:02:49;9.45;;;4.57;;
68275;SDS011;55106;51.438;-0.098;2022-07-18T01:05:14;9.40;;;4.60;;
68275;SDS011;55106;51.438;-0.098;2022-07-18T01:07:40;10.88;;;4.88;;
68275;SDS011;55106;51.438;-0.098;2022-07-18T01:10:05;8.97;;;4.23;;
68275;SDS011;55106;51.438;-0.098;2022-07-18T01:12:31;10.23;;;4.50;;
68275;SDS011;55106;51.438;-0.098;2022-07-18T01:14:57;9.93;;;4.80;;
68275;SDS011;55106;51.438;-0.098;2022-07-18T01:17:23;8.88;;;4.60;;
68275;SDS011;55106;51.438;-0.098;2022-07-18T01:19:48;9.40;;;4.70;;
68275;SDS011;55106;51.438;-0.098;2022-07-18T01:22:15;10.23;;;4.73;;
68275;SDS011;55106;51.438;-0.098;2022-07-18T01:24:42;14.23;;;4.70;;
68275;SDS011;55106;51.438;-0.098;2022-07-18T01:27:08;10.25;;;4.75;;
68275;SDS011;55106;51.438;-0.098;2022-07-18T01:29:33;9.63;;;4.50;;
68275;SDS011;55106;51.438;-0.098;2022-07-18T01:32:05;9.07;;;4.47;;
68275;SDS011;55106;51.438;-0.098;2022-07-18T01:34:32;9.60;;;4.45;;
68275;SDS011;55106;51.438;-0.098;2022-07-18T01:36:58;11.40;;;4.73;;
68275;SDS011;55106;51.438;-0.098;2022-07-18T01:39:24;9.43;;;4.90;;
68275;SDS011;55106;51.438;-0.098;2022-07-18T01:42:00;11.50;;;5.10;;
68275;SDS011;55106;51.438;-0.098;2022-07-18T01:44:27;12.30;;;4.70;;
68275;SDS011;55106;51.438;-0.098;2022-07-18T01:46:53;11.35;;;4.72;;
68275;SDS011;55106;51.438;-0.098;2022-07-18T01:49:19;9.93;;;4.90;;
68275;SDS011;55106;51.438;-0.098;2022-07-18T01:51:45;10.13;;;5.10;;
68275;SDS011;55106;51.438;-0.098;2022-07-18T01:54:12;10.85;;;5.22;;
68275;SDS011;55106;51.438;-0.098;2022-07-18T01:56:38;10.83;;;4.90;;
68275;SDS011;55106;51.438;-0.098;2022-07-18T01:59:03;10.05;;;5.20;;
68275;SDS011;55106;51.438;-0.098;2022-07-18T02:01:29;10.40;;;5.20;;
68275;SDS011;55106;51.438;-0.098;2022-07-18T02:03:54;10.40;;;4.60;;
68275;SDS011;55106;51.438;-0.098;2022-07-18T02:06:20;9.83;;;4.93;;
68275;SDS011;55106;51.438;-0.098;2022-07-18T02:08:45;10.13;;;4.97;;
68275;SDS011;55106;51.438;-0.098;2022-07-18T02:11:11;11.40;;;5.43;;
68275;SDS011;55106;51.438;-0.098;2022-07-18T02:13:37;10.65;;;5.15;;
68275;SDS011;55106;51.438;-0.098;2022-07-18T02:16:03;12.13;;;5.85;;
68275;SDS011;55106;51.438;-0.098;2022-07-18T02:18:28;10.50;;;5.77;;
68275;SDS011;55106;51.438;-0.098;2022-07-18T02:20:57;8.95;;;4.82;;
68275;SDS011;55106;51.438;-0.098;2022-07-18T02:23:25;10.50;;;5.40;;
68275;SDS011;55106;51.438;-0.098;2022-07-18T02:25:51;12.83;;;5.30;;
68275;SDS011;55106;51.438;-0.098;2022-07-18T02:28:17;11.63;;;5.50;;
68275;SDS011;55106;51.438;-0.098;2022-07-18T02:30:42;11.10;;;5.13;;
68275;SDS011;55106;51.438;-0.098;2022-07-18T02:33:08;10.70;;;5.85;;
68275;SDS011;55106;51.438;-0.098;2022-07-18T02:35:33;9.97;;;5.40;;
68275;SDS011;55106;51.438;-0.098;2022-07-18T02:37:59;12.97;;;4.97;;
68275;SDS011;55106;51.438;-0.098;2022-07-18T02:40:24;10.67;;;5.47;;
68275;SDS011;55106;51.438;-0.098;2022-07-18T02:42:50;12.18;;;5.63;;
68275;SDS011;55106;51.438;-0.098;2022-07-18T02:45:15;11.53;;;5.50;;
68275;SDS011;55106;51.438;-0.098;2022-07-18T02:47:41;12.23;;;5.70;;
68275;SDS011;55106;51.438;-0.098;2022-07-18T02:50:06;11.18;;;5.50;;
68275;SDS011;55106;51.438;-0.098;2022-07-18T02:52:32;12.47;;;5.67;;
68275;SDS011;55106;51.438;-0.098;2022-07-18T02:54:58;11.15;;;6.13;;
68275;SDS011;55106;51.438;-0.098;2022-07-18T02:57:25;12.23;;;5.60;;
68275;SDS011;55106;51.438;-0.098;2022-07-18T02:59:51;11.77;;;5.57;;
68275;SDS011;55106;51.438;-0.098;2022-07-18T03:02:16;12.77;;;5.80;;
68275;SDS011;55106;51.438;-0.098;2022-07-18T03:04:42;10.93;;;5.38;;
68275;SDS011;55106;51.438;-0.098;2022-07-18T03:07:08;10.80;;;5.53;;
68275;SDS011;55106;51.438;-0.098;2022-07-18T03:09:33;10.87;;;5.67;;
68275;SDS011;55106;51.438;-0.098;2022-07-18T03:11:58;10.55;;;5.60;;
68275;SDS011;55106;51.438;-0.098;2022-07-18T03:14:24;11.23;;;5.40;;
68275;SDS011;55106;51.438;-0.098;2022-07-18T03:16:49;11.07;;;5.00;;
68275;SDS011;55106;51.438;-0.098;2022-07-18T03:19:15;10.55;;;5.07;;
68275;SDS011;55106;51.438;-0.098;2022-07-18T03:21:41;10.23;;;5.47;;
68275;SDS011;55106;51.438;-0.098;2022-07-18T03:24:07;12.00;;;5.63;;
68275;SDS011;55106;51.438;-0.098;2022-07-18T03:26:33;12.27;;;5.20;;
68275;SDS011;55106;51.438;-0.098;2022-07-18T03:28:58;11.43;;;5.72;;
68275;SDS011;55106;51.438;-0.098;2022-07-18T03:31:24;11.20;;;5.53;;
68275;SDS011;55106;51.438;-0.098;2022-07-18T03:33:49;10.40;;;5.03;;
68275;SDS011;55106;51.438;-0.098;2022-07-18T03:36:15;11.47;;;5.63;;
68275;SDS011;55106;51.438;-0.098;2022-07-18T03:38:40;13.48;;;5.53;;
68275;SDS011;55106;51.438;-0.098;2022-07-18T03:41:08;10.30;;;5.57;;
68275;SDS011;55106;51.438;-0.098;2022-07-18T03:43:35;11.07;;;5.70;;
68275;SDS011;55106;51.438;-0.098;2022-07-18T03:46:02;11.68;;;5.28;;
68275;SDS011;55106;51.438;-0.098;2022-07-18T03:48:28;11.35;;;5.43;;
68275;SDS011;55106;51.438;-0.098;2022-07-18T03:50:53;12.03;;;5.87;;
68275;SDS011;55106;51.438;-0.098;2022-07-18T03:53:19;12.67;;;5.67;;
68275;SDS011;55106;51.438;-0.098;2022-07-18T03:55:44;12.67;;;5.20;;
68275;SDS011;55106;51.438;-0.098;2022-07-18T03:58:10;10.73;;;5.30;;
68275;SDS011;55106;51.438;-0.098;2022-07-18T04:00:35;10.97;;;5.70;;
68275;SDS011;55106;51.438;-0.098;2022-07-18T04:03:00;11.87;;;5.90;;
68275;SDS011;55106;51.438;-0.098;2022-07-18T04:05:26;11.47;;;5.40;;
68275;SDS011;55106;51.438;-0.098;2022-07-18T04:07:51;11.70;;;5.22;;
68275;SDS011;55106;51.438;-0.098;2022-07-18T04:10:17;11.83;;;5.37;;
68275;SDS011;55106;51.438;-0.098;2022-07-18T04:12:52;11.17;;;5.60;;
68275;SDS011;55106;51.438;-0.098;2022-07-18T04:15:19;9.43;;;5.22;;
68275;SDS011;55106;51.438;-0.098;2022-07-18T04:17:46;12.07;;;5.57;;
68275;SDS011;55106;51.438;-0.098;2022-07-18T04:20:12;11.20;;;5.90;;
68275;SDS011;55106;51.438;-0.098;2022-07-18T04:25:10;11.32;;;5.63;;
68275;SDS011;55106;51.438;-0.098;2022-07-18T04:27:36;11.37;;;6.03;;
68275;SDS011;55106;51.438;-0.098;2022-07-18T04:30:02;10.53;;;5.13;;
68275;SDS011;55106;51.438;-0.098;2022-07-18T04:32:28;10.95;;;5.70;;
68275;SDS011;55106;51.438;-0.098;2022-07-18T04:34:53;12.52;;;5.65;;
68275;SDS011;55106;51.438;-0.098;2022-07-18T04:37:19;10.40;;;5.90;;
68275;SDS011;55106;51.438;-0.098;2022-07-18T04:39:44;11.20;;;5.40;;
68275;SDS011;55106;51.438;-0.098;2022-07-18T04:42:10;11.13;;;5.93;;
68275;SDS011;55106;51.438;-0.098;2022-07-18T04:44:35;10.57;;;5.07;;
68275;SDS011;55106;51.438;-0.098;2022-07-18T04:47:01;11.50;;;6.03;;
68275;SDS011;55106;51.438;-0.098;2022-07-18T04:49:26;11.63;;;5.60;;
68275;SDS011;55106;51.438;-0.098;2022-07-18T04:51:52;13.97;;;5.53;;
68275;SDS011;55106;51.438;-0.098;2022-07-18T04:54:17;12.70;;;5.75;;
68275;SDS011;55106;51.438;-0.098;2022-07-18T04:56:42;13.37;;;6.47;;
68275;SDS011;55106;51.438;-0.098;2022-07-18T04:59:08;12.23;;;5.60;;
68275;SDS011;55106;51.438;-0.098;2022-07-18T05:01:33;11.40;;;5.50;;
68275;SDS011;55106;51.438;-0.098;2022-07-18T05:04:00;11.18;;;6.05;;
68275;SDS011;55106;51.438;-0.098;2022-07-18T05:06:26;12.75;;;6.10;;
68275;SDS011;55106;51.438;-0.098;2022-07-18T05:08:51;13.63;;;5.83;;
68275;SDS011;55106;51.438;-0.098;2022-07-18T05:11:16;12.77;;;5.20;;
68275;SDS011;55106;51.438;-0.098;2022-07-18T05:13:42;14.60;;;5.80;;
68275;SDS011;55106;51.438;-0.098;2022-07-18T05:16:08;13.93;;;5.73;;
68275;SDS011;55106;51.438;-0.098;2022-07-18T05:18:33;10.23;;;5.53;;
68275;SDS011;55106;51.438;-0.098;2022-07-18T05:20:58;12.73;;;5.85;;
68275;SDS011;55106;51.438;-0.098;2022-07-18T05:23:24;11.00;;;5.50;;
68275;SDS011;55106;51.438;-0.098;2022-07-18T05:25:50;14.83;;;6.03;;
68275;SDS011;55106;51.438;-0.098;2022-07-18T05:28:15;12.60;;;6.30;;
68275;SDS011;55106;51.438;-0.098;2022-07-18T05:30:40;15.20;;;6.80;;
68275;SDS011;55106;51.438;-0.098;2022-07-18T05:33:06;15.10;;;6.67;;
68275;SDS011;55106;51.438;-0.098;2022-07-18T05:35:32;11.43;;;6.03;;
68275;SDS011;55106;51.438;-0.098;2022-07-18T05:37:57;14.47;;;6.87;;
68275;SDS011;55106;51.438;-0.098;2022-07-18T05:40:23;13.20;;;6.73;;
68275;SDS011;55106;51.438;-0.098;2022-07-18T05:42:48;13.43;;;6.68;;
68275;SDS011;55106;51.438;-0.098;2022-07-18T05:45:15;13.37;;;6.33;;
68275;SDS011;55106;51.438;-0.098;2022-07-18T05:47:40;16.70;;;6.80;;
68275;SDS011;55106;51.438;-0.098;2022-07-18T05:50:06;12.57;;;6.13;;
68275;SDS011;55106;51.438;-0.098;2022-07-18T05:52:33;14.20;;;6.78;;
68275;SDS011;55106;51.438;-0.098;2022-07-18T05:54:59;14.25;;;6.65;;
68275;SDS011;55106;51.438;-0.098;2022-07-18T05:57:25;11.85;;;6.60;;
68275;SDS011;55106;51.438;-0.098;2022-07-18T05:59:51;13.67;;;6.80;;
68275;SDS011;55106;51.438;-0.098;2022-07-18T06:02:16;13.63;;;6.40;;
68275;SDS011;55106;51.438;-0.098;2022-07-18T06:04:42;14.43;;;6.67;;
68275;SDS011;55106;51.438;-0.098;2022-07-18T06:07:07;13.10;;;6.50;;
68275;SDS011;55106;51.438;-0.098;2022-07-18T06:09:32;12.07;;;6.20;;
68275;SDS011;55106;51.438;-0.098;2022-07-18T06:11:58;13.40;;;6.50;;
68275;SDS011;55106;51.438;-0.098;2022-07-18T06:14:25;13.05;;;6.18;;
68275;SDS011;55106;51.438;-0.098;2022-07-18T06:16:55;12.45;;;6.47;;
68275;SDS011;55106;51.438;-0.098;2022-07-18T06:19:21;12.95;;;6.28;;
68275;SDS011;55106;51.438;-0.098;2022-07-18T06:21:46;12.40;;;6.20;;
68275;SDS011;55106;51.438;-0.098;2022-07-18T06:24:12;12.13;;;6.28;;
68275;SDS011;55106;51.438;-0.098;2022-07-18T06:26:37;12.40;;;6.40;;
68275;SDS011;55106;51.438;-0.098;2022-07-18T06:29:03;12.90;;;6.00;;
68275;SDS011;55106;51.438;-0.098;2022-07-18T06:31:29;14.68;;;6.45;;
68275;SDS011;55106;51.438;-0.098;2022-07-18T06:33:54;13.37;;;6.00;;
68275;SDS011;55106;51.438;-0.098;2022-07-18T06:36:20;11.83;;;5.77;;
68275;SDS011;55106;51.438;-0.098;2022-07-18T06:38:48;13.33;;;6.20;;
68275;SDS011;55106;51.438;-0.098;2022-07-18T06:41:17;13.80;;;6.03;;
68275;SDS011;55106;51.438;-0.098;2022-07-18T06:43:43;11.45;;;5.38;;
68275;SDS011;55106;51.438;-0.098;2022-07-18T06:46:09;16.85;;;5.88;;
68275;SDS011;55106;51.438;-0.098;2022-07-18T06:48:35;14.13;;;5.80;;
68275;SDS011;55106;51.438;-0.098;2022-07-18T06:51:01;12.15;;;4.88;;
68275;SDS011;55106;51.438;-0.098;2022-07-18T06:53:27;13.40;;;5.83;;
68275;SDS011;55106;51.438;-0.098;2022-07-18T06:55:53;10.68;;;5.20;;
68275;SDS011;55106;51.438;-0.098;2022-07-18T06:58:19;11.00;;;5.07;;
68275;SDS011;55106;51.438;-0.098;2022-07-18T07:00:45;11.20;;;4.97;;
68275;SDS011;55106;51.438;-0.098;2022-07-18T07:03:10;11.17;;;5.00;;
68275;SDS011;55106;51.438;-0.098;2022-07-18T07:05:35;11.13;;;4.73;;
68275;SDS011;55106;51.438;-0.098;2022-07-18T07:08:01;9.50;;;4.70;;
68275;SDS011;55106;51.438;-0.098;2022-07-18T07:10:26;8.75;;;4.32;;
68275;SDS011;55106;51.438;-0.098;2022-07-18T07:12:52;8.07;;;4.50;;
68275;SDS011;55106;51.438;-0.098;2022-07-18T07:15:19;10.43;;;3.95;;
68275;SDS011;55106;51.438;-0.098;2022-07-18T07:17:46;10.00;;;3.22;;
68275;SDS011;55106;51.438;-0.098;2022-07-18T07:20:12;6.50;;;2.93;;
68275;SDS011;55106;51.438;-0.098;2022-07-18T07:22:44;7.32;;;2.90;;
68275;SDS011;55106;51.438;-0.098;2022-07-18T07:25:12;7.80;;;3.33;;
68275;SDS011;55106;51.438;-0.098;2022-07-18T07:27:39;8.77;;;2.85;;
68275;SDS011;55106;51.438;-0.098;2022-07-18T07:30:05;7.13;;;3.25;;
68275;SDS011;55106;51.438;-0.098;2022-07-18T07:32:37;6.97;;;2.90;;
68275;SDS011;55106;51.438;-0.098;2022-07-18T07:35:05;9.15;;;2.78;;
68275;SDS011;55106;51.438;-0.098;2022-07-18T07:37:36;8.50;;;2.78;;
68275;SDS011;55106;51.438;-0.098;2022-07-18T07:40:03;6.00;;;2.90;;
68275;SDS011;55106;51.438;-0.098;2022-07-18T07:42:29;5.80;;;2.85;;
68275;SDS011;55106;51.438;-0.098;2022-07-18T07:44:55;7.90;;;2.77;;
68275;SDS011;55106;51.438;-0.098;2022-07-18T07:47:20;7.20;;;2.73;;
68275;SDS011;55106;51.438;-0.098;2022-07-18T07:49:46;8.27;;;3.00;;
68275;SDS011;55106;51.438;-0.098;2022-07-18T07:52:11;5.65;;;2.53;;
68275;SDS011;55106;51.438;-0.098;2022-07-18T07:54:38;7.25;;;3.00;;
68275;SDS011;55106;51.438;-0.098;2022-07-18T07:57:05;6.97;;;2.53;;
68275;SDS011;55106;51.438;-0.098;2022-07-18T07:59:30;7.07;;;2.50;;
68275;SDS011;55106;51.438;-0.098;2022-07-18T08:01:57;6.88;;;2.30;;
68275;SDS011;55106;51.438;-0.098;2022-07-18T08:04:23;6.68;;;2.72;;
68275;SDS011;55106;51.438;-0.098;2022-07-18T08:06:49;7.67;;;2.40;;
68275;SDS011;55106;51.438;-0.098;2022-07-18T08:09:14;5.33;;;2.30;;
68275;SDS011;55106;51.438;-0.098;2022-07-18T08:11:39;5.47;;;2.17;;
68275;SDS011;55106;51.438;-0.098;2022-07-18T08:14:05;6.05;;;2.53;;
68275;SDS011;55106;51.438;-0.098;2022-07-18T08:16:30;5.63;;;2.47;;
68275;SDS011;55106;51.438;-0.098;2022-07-18T08:18:56;6.73;;;2.30;;
68275;SDS011;55106;51.438;-0.098;2022-07-18T08:21:21;5.53;;;2.40;;
68275;SDS011;55106;51.438;-0.098;2022-07-18T08:23:47;5.80;;;2.30;;
68275;SDS011;55106;51.438;-0.098;2022-07-18T08:26:13;7.93;;;2.60;;
68275;SDS011;55106;51.438;-0.098;2022-07-18T08:28:39;6.28;;;2.53;;
68275;SDS011;55106;51.438;-0.098;2022-07-18T08:31:04;10.17;;;2.83;;
68275;SDS011;55106;51.438;-0.098;2022-07-18T08:33:29;8.98;;;2.40;;
68275;SDS011;55106;51.438;-0.098;2022-07-18T08:35:55;7.33;;;2.50;;
68275;SDS011;55106;51.438;-0.098;2022-07-18T08:38:20;6.60;;;2.50;;
68275;SDS011;55106;51.438;-0.098;2022-07-18T08:40:49;7.77;;;2.60;;
68275;SDS011;55106;51.438;-0.098;2022-07-18T08:43:17;7.78;;;2.38;;
68275;SDS011;55106;51.438;-0.098;2022-07-18T08:45:44;9.80;;;2.70;;
68275;SDS011;55106;51.438;-0.098;2022-07-18T08:48:20;7.75;;;2.80;;
68275;SDS011;55106;51.438;-0.098;2022-07-18T08:50:46;6.07;;;2.60;;
68275;SDS011;55106;51.438;-0.098;2022-07-18T08:53:13;7.47;;;2.65;;
68275;SDS011;55106;51.438;-0.098;2022-07-18T08:55:41;6.13;;;2.28;;
68275;SDS011;55106;51.438;-0.098;2022-07-18T08:58:07;7.38;;;2.80;;
68275;SDS011;55106;51.438;-0.098;2022-07-18T09:00:33;5.50;;;2.30;;
68275;SDS011;55106;51.438;-0.098;2022-07-18T09:03:00;6.18;;;2.25;;
68275;SDS011;55106;51.438;-0.098;2022-07-18T09:05:27;5.27;;;2.27;;
68275;SDS011;55106;51.438;-0.098;2022-07-18T09:10:48;8.85;;;2.28;;
68275;SDS011;55106;51.438;-0.098;2022-07-18T09:13:17;8.13;;;2.58;;
68275;SDS011;55106;51.438;-0.098;2022-07-18T09:15:59;5.82;;;2.00;;
68275;SDS011;55106;51.438;-0.098;2022-07-18T09:18:28;19.37;;;3.40;;
68275;SDS011;55106;51.438;-0.098;2022-07-18T09:20:59;15.35;;;2.90;;
68275;SDS011;55106;51.438;-0.098;2022-07-18T09:23:27;23.20;;;3.35;;
68275;SDS011;55106;51.438;-0.098;2022-07-18T09:25:54;5.85;;;2.10;;
68275;SDS011;55106;51.438;-0.098;2022-07-18T09:28:19;5.03;;;2.13;;
68275;SDS011;55106;51.438;-0.098;2022-07-18T09:30:45;7.97;;;1.90;;
68275;SDS011;55106;51.438;-0.098;2022-07-18T09:33:10;17.80;;;3.30;;
68275;SDS011;55106;51.438;-0.098;2022-07-18T09:35:44;10.60;;;2.78;;
68275;SDS011;55106;51.438;-0.098;2022-07-18T09:38:12;6.15;;;2.00;;
68275;SDS011;55106;51.438;-0.098;2022-07-18T09:40:43;7.45;;;2.13;;
68275;SDS011;55106;51.438;-0.098;2022-07-18T09:43:14;7.20;;;2.13;;
68275;SDS011;55106;51.438;-0.098;2022-07-18T09:45:46;12.47;;;2.50;;
68275;SDS011;55106;51.438;-0.098;2022-07-18T09:48:25;10.75;;;2.35;;
68275;SDS011;55106;51.438;-0.098;2022-07-18T09:51:00;5.63;;;2.20;;
68275;SDS011;55106;51.438;-0.098;2022-07-18T09:53:37;8.32;;;2.00;;
68275;SDS011;55106;51.438;-0.098;2022-07-18T09:56:11;5.97;;;2.15;;
68275;SDS011;55106;51.438;-0.098;2022-07-18T09:59:03;10.30;;;2.33;;
68275;SDS011;55106;51.438;-0.098;2022-07-18T10:01:31;6.15;;;2.35;;
68275;SDS011;55106;51.438;-0.098;2022-07-18T10:04:00;6.10;;;3.10;;
68275;SDS011;55106;51.438;-0.098;2022-07-18T10:06:26;7.50;;;2.50;;
68275;SDS011;55106;51.438;-0.098;2022-07-18T10:08:52;6.28;;;2.10;;
68275;SDS011;55106;51.438;-0.098;2022-07-18T10:11:20;7.53;;;2.10;;
68275;SDS011;55106;51.438;-0.098;2022-07-18T10:13:47;7.30;;;2.70;;
68275;SDS011;55106;51.438;-0.098;2022-07-18T10:16:14;7.38;;;1.90;;
68275;SDS011;55106;51.438;-0.098;2022-07-18T10:18:39;7.32;;;2.15;;
68275;SDS011;55106;51.438;-0.098;2022-07-18T10:21:06;7.25;;;2.25;;
68275;SDS011;55106;51.438;-0.098;2022-07-18T10:31:21;6.13;;;2.30;;
68275;SDS011;55106;51.438;-0.098;2022-07-18T10:33:47;6.97;;;2.22;;
68275;SDS011;55106;51.438;-0.098;2022-07-18T10:36:20;7.05;;;2.30;;
68275;SDS011;55106;51.438;-0.098;2022-07-18T10:41:32;7.38;;;2.42;;
68275;SDS011;55106;51.438;-0.098;2022-07-18T10:44:31;6.53;;;2.85;;
68275;SDS011;55106;51.438;-0.098;2022-07-18T10:57:35;8.13;;;2.58;;
68275;SDS011;55106;51.438;-0.098;2022-07-18T11:00:10;7.18;;;2.65;;
68275;SDS011;55106;51.438;-0.098;2022-07-18T11:02:39;10.10;;;2.55;;
68275;SDS011;55106;51.438;-0.098;2022-07-18T11:05:51;7.73;;;2.47;;
68275;SDS011;55106;51.438;-0.098;2022-07-18T11:23:59;9.48;;;2.55;;
68275;SDS011;55106;51.438;-0.098;2022-07-18T11:26:28;7.82;;;2.20;;
68275;SDS011;55106;51.438;-0.098;2022-07-18T11:28:59;6.83;;;2.17;;
68275;SDS011;55106;51.438;-0.098;2022-07-18T11:31:50;5.03;;;2.20;;
68275;SDS011;55106;51.438;-0.098;2022-07-18T11:34:18;7.80;;;2.55;;
68275;SDS011;55106;51.438;-0.098;2022-07-18T11:36:44;6.25;;;2.20;;
68275;SDS011;55106;51.438;-0.098;2022-07-18T11:39:11;6.40;;;2.08;;
68275;SDS011;55106;51.438;-0.098;2022-07-18T11:41:39;6.03;;;2.10;;
68275;SDS011;55106;51.438;-0.098;2022-07-18T11:44:15;5.63;;;2.10;;
68275;SDS011;55106;51.438;-0.098;2022-07-18T11:46:59;7.78;;;2.28;;
68275;SDS011;55106;51.438;-0.098;2022-07-18T11:49:36;5.70;;;1.88;;
68275;SDS011;55106;51.438;-0.098;2022-07-18T11:52:02;4.70;;;1.90;;
68275;SDS011;55106;51.438;-0.098;2022-07-18T11:54:28;5.93;;;2.47;;
68275;SDS011;55106;51.438;-0.098;2022-07-18T11:56:54;8.10;;;1.92;;
68275;SDS011;55106;51.438;-0.098;2022-07-18T11:59:21;7.68;;;2.03;;
68275;SDS011;55106;51.438;-0.098;2022-07-18T12:01:48;6.77;;;2.00;;
68275;SDS011;55106;51.438;-0.098;2022-07-18T12:04:22;7.70;;;2.47;;
68275;SDS011;55106;51.438;-0.098;2022-07-18T12:09:40;6.10;;;2.10;;
68275;SDS011;55106;51.438;-0.098;2022-07-18T12:12:07;7.47;;;2.45;;
68275;SDS011;55106;51.438;-0.098;2022-07-18T12:14:34;5.43;;;1.97;;
68275;SDS011;55106;51.438;-0.098;2022-07-18T12:16:59;4.63;;;2.00;;
68275;SDS011;55106;51.438;-0.098;2022-07-18T12:19:39;6.67;;;2.30;;
68275;SDS011;55106;51.438;-0.098;2022-07-18T12:32:28;9.88;;;2.17;;
68275;SDS011;55106;51.438;-0.098;2022-07-18T12:35:26;10.00;;;2.20;;
68275;SDS011;55106;51.438;-0.098;2022-07-18T12:40:18;6.17;;;2.10;;
68275;SDS011;55106;51.438;-0.098;2022-07-18T12:42:44;7.97;;;2.15;;
68275;SDS011;55106;51.438;-0.098;2022-07-18T12:45:10;12.17;;;2.80;;
68275;SDS011;55106;51.438;-0.098;2022-07-18T12:47:37;6.80;;;2.00;;
68275;SDS011;55106;51.438;-0.098;2022-07-18T12:50:03;7.47;;;2.27;;
68275;SDS011;55106;51.438;-0.098;2022-07-18T12:52:30;5.75;;;1.75;;
68275;SDS011;55106;51.438;-0.098;2022-07-18T12:54:55;7.07;;;1.90;;
68275;SDS011;55106;51.438;-0.098;2022-07-18T12:57:21;7.60;;;2.20;;
68275;SDS011;55106;51.438;-0.098;2022-07-18T12:59:48;5.10;;;2.00;;
68275;SDS011;55106;51.438;-0.098;2022-07-18T13:02:14;6.80;;;2.20;;
68275;SDS011;55106;51.438;-0.098;2022-07-18T13:04:40;6.70;;;2.05;;
68275;SDS011;55106;51.438;-0.098;2022-07-18T13:07:06;8.50;;;2.17;;
68275;SDS011;55106;51.438;-0.098;2022-07-18T13:09:34;5.97;;;2.37;;
68275;SDS011;55106;51.438;-0.098;2022-07-18T13:12:00;7.18;;;2.08;;
68275;SDS011;55106;51.438;-0.098;2022-07-18T13:14:26;7.45;;;3.28;;
68275;SDS011;55106;51.438;-0.098;2022-07-18T13:16:52;6.80;;;3.33;;
68275;SDS011;55106;51.438;-0.098;2022-07-18T13:19:20;6.85;;;2.30;;
68275;SDS011;55106;51.438;-0.098;2022-07-18T13:21:46;7.77;;;2.40;;
68275;SDS011;55106;51.438;-0.098;2022-07-18T13:24:13;7.00;;;2.30;;
68275;SDS011;55106;51.438;-0.098;2022-07-18T13:26:40;5.18;;;1.90;;
68275;SDS011;55106;51.438;-0.098;2022-07-18T13:29:06;5.15;;;1.90;;
68275;SDS011;55106;51.438;-0.098;2022-07-18T13:31:31;7.50;;;2.13;;
68275;SDS011;55106;51.438;-0.098;2022-07-18T13:33:57;5.20;;;1.88;;
68275;SDS011;55106;51.438;-0.098;2022-07-18T13:36:23;6.17;;;2.00;;
68275;SDS011;55106;51.438;-0.098;2022-07-18T13:38:48;5.93;;;1.88;;
68275;SDS011;55106;51.438;-0.098;2022-07-18T13:41:14;5.63;;;1.80;;
68275;SDS011;55106;51.438;-0.098;2022-07-18T13:43:40;5.20;;;2.10;;
68275;SDS011;55106;51.438;-0.098;2022-07-18T13:46:06;6.28;;;2.00;;
68275;SDS011;55106;51.438;-0.098;2022-07-18T13:48:33;6.88;;;1.75;;
68275;SDS011;55106;51.438;-0.098;2022-07-18T13:50:58;5.43;;;2.17;;
68275;SDS011;55106;51.438;-0.098;2022-07-18T13:53:24;5.18;;;2.35;;
68275;SDS011;55106;51.438;-0.098;2022-07-18T13:55:50;6.00;;;1.90;;
68275;SDS011;55106;51.438;-0.098;2022-07-18T13:58:16;6.55;;;1.90;;
68275;SDS011;55106;51.438;-0.098;2022-07-18T14:00:42;5.33;;;2.00;;
68275;SDS011;55106;51.438;-0.098;2022-07-18T14:03:09;5.35;;;2.03;;
68275;SDS011;55106;51.438;-0.098;2022-07-18T14:05:35;5.63;;;1.83;;
68275;SDS011;55106;51.438;-0.098;2022-07-18T14:08:00;4.87;;;1.80;;
68275;SDS011;55106;51.438;-0.098;2022-07-18T14:10:26;5.38;;;1.88;;
68275;SDS011;55106;51.438;-0.098;2022-07-18T14:12:52;5.93;;;1.93;;
68275;SDS011;55106;51.438;-0.098;2022-07-18T14:15:17;6.03;;;1.97;;
68275;SDS011;55106;51.438;-0.098;2022-07-18T14:17:43;5.22;;;2.25;;
68275;SDS011;55106;51.438;-0.098;2022-07-18T14:20:08;5.53;;;1.83;;
68275;SDS011;55106;51.438;-0.098;2022-07-18T14:22:35;5.85;;;1.70;;
68275;SDS011;55106;51.438;-0.098;2022-07-18T14:25:02;4.65;;;1.80;;
68275;SDS011;55106;51.438;-0.098;2022-07-18T14:27:29;6.03;;;1.90;;
68275;SDS011;55106;51.438;-0.098;2022-07-18T14:29:54;5.10;;;2.00;;
68275;SDS011;55106;51.438;-0.098;2022-07-18T14:32:20;4.70;;;1.80;;
68275;SDS011;55106;51.438;-0.098;2022-07-18T14:34:45;5.40;;;2.00;;
68275;SDS011;55106;51.438;-0.098;2022-07-18T14:37:11;5.47;;;2.07;;
68275;SDS011;55106;51.438;-0.098;2022-07-18T14:39:36;5.00;;;2.20;;
68275;SDS011;55106;51.438;-0.098;2022-07-18T14:42:02;5.03;;;2.00;;
68275;SDS011;55106;51.438;-0.098;2022-07-18T14:44:27;6.83;;;2.53;;
68275;SDS011;55106;51.438;-0.098;2022-07-18T14:46:53;6.22;;;2.10;;
68275;SDS011;55106;51.438;-0.098;2022-07-18T14:49:21;9.13;;;2.30;;
68275;SDS011;55106;51.438;-0.098;2022-07-18T14:51:47;7.68;;;2.40;;
68275;SDS011;55106;51.438;-0.098;2022-07-18T14:54:12;5.73;;;2.03;;
68275;SDS011;55106;51.438;-0.098;2022-07-18T14:56:37;5.50;;;2.00;;
68275;SDS011;55106;51.438;-0.098;2022-07-18T14:59:03;7.50;;;3.50;;
68275;SDS011;55106;51.438;-0.098;2022-07-18T15:01:28;6.93;;;3.20;;
68275;SDS011;55106;51.438;-0.098;2022-07-18T15:03:57;8.07;;;2.47;;
68275;SDS011;55106;51.438;-0.098;2022-07-18T15:06:23;7.83;;;2.00;;
68275;SDS011;55106;51.438;-0.098;2022-07-18T15:08:49;5.97;;;2.00;;
68275;SDS011;55106;51.438;-0.098;2022-07-18T15:11:15;5.90;;;2.30;;
68275;SDS011;55106;51.438;-0.098;2022-07-18T15:13:43;7.03;;;2.30;;
68275;SDS011;55106;51.438;-0.098;2022-07-18T15:16:12;5.70;;;2.10;;
68275;SDS011;55106;51.438;-0.098;2022-07-18T15:18:38;6.40;;;2.50;;
68275;SDS011;55106;51.438;-0.098;2022-07-18T15:21:03;6.57;;;1.95;;
68275;SDS011;55106;51.438;-0.098;2022-07-18T15:23:29;6.27;;;2.30;;
68275;SDS011;55106;51.438;-0.098;2022-07-18T15:25:55;13.73;;;2.73;;